N1PD KDWH-KLZU
Flight info
| Callsign | N1PD |
|---|---|
| Flight time | N/A |
| Altitude | 45000 |
| Route | STRYA8 DPATY SWTEE SWTEE2 |
| Aircraft | C750/M-SBDE3FGHRWXY/S |
Departure
| Time | 2026-04-21 21:59 |
|---|---|
| Airport | David Wayne Hooks Memorial Airport (KDWH) |
Arrival
| Time | N/A |
|---|---|
| Airport | Gwinnett County Briscoe Field (KLZU) |
| Time | Latitude | Longitude | Altitude | Speed | Heading |
|---|---|---|---|---|---|
| 2026-04-21 21:39 | 30.06962 | -95.55281 | 149 ft | 0 kts | 1° |
| 2026-04-21 21:54 | 30.06963 | -95.55281 | 149 ft | 0 kts | 1° |
| 2026-04-21 21:55 | 30.06972 | -95.55281 | 149 ft | 4 kts | 359° |
| 2026-04-21 21:55 | 30.06985 | -95.55299 | 149 ft | 5 kts | 293° |
| 2026-04-21 21:56 | 30.06991 | -95.55345 | 148 ft | 6 kts | 269° |
| 2026-04-21 21:56 | 30.06990 | -95.55390 | 148 ft | 6 kts | 270° |
| 2026-04-21 21:56 | 30.06988 | -95.55427 | 148 ft | 2 kts | 238° |
| 2026-04-21 21:56 | 30.06969 | -95.55430 | 147 ft | 4 kts | 176° |
| 2026-04-21 21:57 | 30.06963 | -95.55428 | 147 ft | 0 kts | 170° |
| 2026-04-21 21:57 | 30.06959 | -95.55427 | 147 ft | 0 kts | 171° |
| 2026-04-21 21:58 | 30.06958 | -95.55427 | 147 ft | 1 kts | 171° |
| 2026-04-21 21:58 | 30.06924 | -95.55422 | 146 ft | 32 kts | 172° |
| 2026-04-21 21:59 | 30.06302 | -95.55329 | 152 ft | 138 kts | 173° |
| 2026-04-21 21:59 | 30.05267 | -95.55159 | 477 ft | 167 kts | 172° |
| 2026-04-21 21:59 | 30.04055 | -95.54731 | 716 ft | 203 kts | 147° |
| 2026-04-21 21:59 | 30.03218 | -95.53287 | 836 ft | 239 kts | 106° |
| 2026-04-21 22:00 | 30.03263 | -95.51291 | 1331 ft | 258 kts | 75° |
| 2026-04-21 22:00 | 30.03787 | -95.49341 | 2526 ft | 253 kts | 72° |
| 2026-04-21 22:00 | 30.04236 | -95.47422 | 3613 ft | 248 kts | 76° |
| 2026-04-21 22:00 | 30.04610 | -95.45469 | 4665 ft | 251 kts | 77° |
| 2026-04-21 22:01 | 30.05001 | -95.43500 | 5700 ft | 253 kts | 76° |
| 2026-04-21 22:01 | 30.05415 | -95.41519 | 6723 ft | 255 kts | 76° |
| 2026-04-21 22:01 | 30.05832 | -95.39515 | 7743 ft | 259 kts | 76° |
| 2026-04-21 22:01 | 30.06250 | -95.37478 | 8784 ft | 263 kts | 76° |
| 2026-04-21 22:02 | 30.06671 | -95.35420 | 9831 ft | 263 kts | 76° |
| 2026-04-21 22:02 | 30.07092 | -95.33374 | 10852 ft | 261 kts | 76° |
| 2026-04-21 22:02 | 30.07507 | -95.31349 | 11845 ft | 258 kts | 76° |
| 2026-04-21 22:02 | 30.07918 | -95.29343 | 12793 ft | 256 kts | 76° |
| 2026-04-21 22:03 | 30.08338 | -95.27356 | 13714 ft | 253 kts | 74° |
| 2026-04-21 22:03 | 30.09228 | -95.25624 | 14455 ft | 255 kts | 43° |
| 2026-04-21 22:03 | 30.10643 | -95.24417 | 15346 ft | 251 kts | 33° |
| 2026-04-21 22:03 | 30.12078 | -95.23295 | 16240 ft | 248 kts | 33° |
| 2026-04-21 22:04 | 30.13495 | -95.22171 | 17098 ft | 246 kts | 34° |
| 2026-04-21 22:04 | 30.14901 | -95.21042 | 17923 ft | 246 kts | 34° |
| 2026-04-21 22:04 | 30.16290 | -95.19931 | 18719 ft | 246 kts | 34° |
| 2026-04-21 22:04 | 30.17702 | -95.18803 | 19512 ft | 247 kts | 34° |
| 2026-04-21 22:05 | 30.19119 | -95.17671 | 20298 ft | 248 kts | 34° |
| 2026-04-21 22:05 | 30.20538 | -95.16535 | 21066 ft | 248 kts | 34° |
| 2026-04-21 22:05 | 30.21962 | -95.15396 | 21829 ft | 249 kts | 34° |
| 2026-04-21 22:05 | 30.23385 | -95.14257 | 22576 ft | 249 kts | 34° |
| 2026-04-21 22:06 | 30.24808 | -95.13118 | 23307 ft | 249 kts | 34° |
| 2026-04-21 22:06 | 30.26231 | -95.11978 | 24021 ft | 249 kts | 34° |
| 2026-04-21 22:06 | 30.27653 | -95.10838 | 24717 ft | 248 kts | 34° |
| 2026-04-21 22:06 | 30.29070 | -95.09702 | 25387 ft | 248 kts | 34° |
| 2026-04-21 22:07 | 30.30488 | -95.08566 | 26042 ft | 248 kts | 34° |
| 2026-04-21 22:07 | 30.31908 | -95.07427 | 26685 ft | 249 kts | 34° |
| 2026-04-21 22:07 | 30.33331 | -95.06284 | 27321 ft | 249 kts | 34° |
| 2026-04-21 22:07 | 30.34756 | -95.05141 | 27940 ft | 250 kts | 34° |
| 2026-04-21 22:08 | 30.36184 | -95.03994 | 28548 ft | 250 kts | 34° |
| 2026-04-21 22:08 | 30.37615 | -95.02844 | 29144 ft | 251 kts | 34° |
| 2026-04-21 22:08 | 30.39049 | -95.01692 | 29726 ft | 251 kts | 34° |
| 2026-04-21 22:08 | 30.40494 | -95.00553 | 30290 ft | 251 kts | 30° |
| 2026-04-21 22:09 | 30.41486 | -94.99862 | 30648 ft | 252 kts | 32° |
| 2026-04-21 22:09 | 30.42931 | -94.98714 | 31191 ft | 252 kts | 34° |
| 2026-04-21 22:09 | 30.44373 | -94.97556 | 31722 ft | 252 kts | 33° |
| 2026-04-21 22:09 | 30.45842 | -94.96439 | 32241 ft | 253 kts | 32° |
| 2026-04-21 22:10 | 30.47317 | -94.95324 | 32747 ft | 253 kts | 32° |
| 2026-04-21 22:10 | 30.48790 | -94.94196 | 33240 ft | 254 kts | 33° |
| 2026-04-21 22:10 | 30.50265 | -94.93064 | 33720 ft | 255 kts | 33° |
| 2026-04-21 22:10 | 30.51744 | -94.91930 | 34190 ft | 255 kts | 33° |
| 2026-04-21 22:11 | 30.53227 | -94.90794 | 34650 ft | 256 kts | 33° |
| 2026-04-21 22:11 | 30.54715 | -94.89655 | 35098 ft | 257 kts | 33° |
| 2026-04-21 22:11 | 30.56206 | -94.88511 | 35536 ft | 257 kts | 33° |
| 2026-04-21 22:11 | 30.57701 | -94.87363 | 35964 ft | 258 kts | 33° |
| 2026-04-21 22:12 | 30.59204 | -94.86209 | 36381 ft | 259 kts | 33° |
| 2026-04-21 22:12 | 30.60710 | -94.85053 | 36788 ft | 260 kts | 33° |
| 2026-04-21 22:12 | 30.62222 | -94.83891 | 37184 ft | 261 kts | 33° |
| 2026-04-21 22:12 | 30.63740 | -94.82723 | 37570 ft | 262 kts | 33° |
| 2026-04-21 22:13 | 30.65266 | -94.81550 | 37948 ft | 264 kts | 33° |
| 2026-04-21 22:13 | 30.66798 | -94.80372 | 38318 ft | 265 kts | 33° |
| 2026-04-21 22:13 | 30.68338 | -94.79187 | 38681 ft | 266 kts | 33° |
| 2026-04-21 22:13 | 30.69884 | -94.77996 | 39036 ft | 267 kts | 33° |
| 2026-04-21 22:14 | 30.71438 | -94.76800 | 39379 ft | 269 kts | 33° |
| 2026-04-21 22:14 | 30.73040 | -94.75567 | 39419 ft | 284 kts | 33° |
| 2026-04-21 22:14 | 30.74728 | -94.74266 | 39453 ft | 299 kts | 33° |
| 2026-04-21 22:14 | 30.76500 | -94.72899 | 39499 ft | 313 kts | 33° |
| 2026-04-21 22:15 | 30.78357 | -94.71467 | 39538 ft | 328 kts | 33° |
| 2026-04-21 22:15 | 30.80296 | -94.69970 | 39591 ft | 342 kts | 33° |
| 2026-04-21 22:15 | 30.82315 | -94.68411 | 39644 ft | 355 kts | 33° |
| 2026-04-21 22:15 | 30.84412 | -94.66790 | 39694 ft | 369 kts | 33° |
| 2026-04-21 22:16 | 30.86589 | -94.65107 | 39741 ft | 382 kts | 33° |
| 2026-04-21 22:16 | 30.88839 | -94.63367 | 39783 ft | 395 kts | 33° |
| 2026-04-21 22:16 | 30.91162 | -94.61569 | 39821 ft | 407 kts | 33° |
| 2026-04-21 22:16 | 30.93556 | -94.59715 | 39856 ft | 420 kts | 33° |
| 2026-04-21 22:17 | 30.96021 | -94.57806 | 39887 ft | 431 kts | 33° |
| 2026-04-21 22:17 | 30.98525 | -94.55799 | 39902 ft | 443 kts | 37° |
| 2026-04-21 22:17 | 31.00825 | -94.53344 | 39902 ft | 455 kts | 47° |
| 2026-04-21 22:17 | 31.02776 | -94.50397 | 40039 ft | 463 kts | 57° |
| 2026-04-21 22:18 | 31.04291 | -94.47092 | 40491 ft | 462 kts | 65° |
| 2026-04-21 22:18 | 31.05534 | -94.43634 | 40935 ft | 462 kts | 68° |
| 2026-04-21 22:18 | 31.06706 | -94.40200 | 41328 ft | 462 kts | 67° |
| 2026-04-21 22:18 | 31.08061 | -94.36799 | 41709 ft | 463 kts | 62° |
| 2026-04-21 22:19 | 31.09608 | -94.33510 | 42104 ft | 463 kts | 60° |
| 2026-04-21 22:19 | 31.11135 | -94.30207 | 42478 ft | 463 kts | 63° |
| 2026-04-21 22:19 | 31.12526 | -94.26821 | 42849 ft | 463 kts | 65° |
| 2026-04-21 22:19 | 31.13903 | -94.23427 | 43208 ft | 463 kts | 64° |
| 2026-04-21 22:20 | 31.15361 | -94.20078 | 43561 ft | 463 kts | 62° |
| 2026-04-21 22:20 | 31.16839 | -94.16741 | 43899 ft | 463 kts | 63° |
| 2026-04-21 22:20 | 31.18273 | -94.13371 | 44232 ft | 463 kts | 64° |
| 2026-04-21 22:20 | 31.19683 | -94.09992 | 44555 ft | 463 kts | 64° |
| 2026-04-21 22:21 | 31.21117 | -94.06626 | 44869 ft | 463 kts | 63° |
| 2026-04-21 22:21 | 31.22571 | -94.03259 | 44992 ft | 468 kts | 63° |
| 2026-04-21 22:21 | 31.24034 | -93.99832 | 44995 ft | 475 kts | 63° |
| 2026-04-21 22:22 | 31.27002 | -93.92813 | 45012 ft | 488 kts | 63° |
| 2026-04-21 22:22 | 31.30071 | -93.85602 | 45009 ft | 502 kts | 63° |
| 2026-04-21 22:23 | 31.32802 | -93.78024 | 45011 ft | 508 kts | 69° |
| 2026-04-21 22:23 | 31.35410 | -93.70342 | 45002 ft | 508 kts | 68° |
| 2026-04-21 22:24 | 31.38075 | -93.62683 | 45006 ft | 508 kts | 68° |
| 2026-04-21 22:24 | 31.40690 | -93.54990 | 45004 ft | 509 kts | 68° |
| 2026-04-21 22:25 | 31.43336 | -93.47307 | 45006 ft | 509 kts | 68° |
| 2026-04-21 22:25 | 31.45953 | -93.39612 | 45007 ft | 509 kts | 68° |
| 2026-04-21 22:26 | 31.48581 | -93.31915 | 45004 ft | 509 kts | 68° |
| 2026-04-21 22:26 | 31.51193 | -93.24219 | 45005 ft | 508 kts | 68° |
| 2026-04-21 22:27 | 31.53808 | -93.16515 | 45002 ft | 508 kts | 68° |
| 2026-04-21 22:27 | 31.56412 | -93.08812 | 45006 ft | 508 kts | 68° |
| 2026-04-21 22:28 | 31.58997 | -93.01155 | 45008 ft | 508 kts | 68° |
| 2026-04-21 22:28 | 31.61593 | -92.93444 | 45008 ft | 508 kts | 68° |
| 2026-04-21 22:29 | 31.64185 | -92.85728 | 45008 ft | 508 kts | 68° |
| 2026-04-21 22:29 | 31.66775 | -92.78002 | 45008 ft | 509 kts | 68° |
| 2026-04-21 22:30 | 31.69358 | -92.70274 | 45009 ft | 509 kts | 68° |
| 2026-04-21 22:30 | 31.71937 | -92.62543 | 45009 ft | 508 kts | 68° |
| 2026-04-21 22:31 | 31.74511 | -92.54809 | 45009 ft | 508 kts | 68° |
| 2026-04-21 22:31 | 31.77082 | -92.47065 | 45009 ft | 508 kts | 69° |
| 2026-04-21 22:32 | 31.79645 | -92.39324 | 45010 ft | 508 kts | 69° |
| 2026-04-21 22:32 | 31.82204 | -92.31579 | 45010 ft | 508 kts | 69° |
| 2026-04-21 22:33 | 31.84766 | -92.23808 | 45008 ft | 511 kts | 69° |
| 2026-04-21 22:33 | 31.87326 | -92.16021 | 45010 ft | 510 kts | 69° |
| 2026-04-21 22:34 | 31.89881 | -92.08234 | 45010 ft | 510 kts | 69° |
| 2026-04-21 22:34 | 31.92432 | -92.00438 | 45010 ft | 510 kts | 69° |
| 2026-04-21 22:35 | 31.94979 | -91.92636 | 45007 ft | 510 kts | 69° |
| 2026-04-21 22:35 | 31.97518 | -91.84841 | 45002 ft | 510 kts | 69° |
| 2026-04-21 22:36 | 32.01318 | -91.73136 | 45005 ft | 510 kts | 69° |
| 2026-04-21 22:36 | 32.03845 | -91.65327 | 45007 ft | 510 kts | 69° |
| 2026-04-21 22:37 | 32.06369 | -91.57509 | 45002 ft | 510 kts | 69° |
| 2026-04-21 22:37 | 32.08883 | -91.49750 | 45006 ft | 510 kts | 69° |
| 2026-04-21 22:38 | 32.11443 | -91.41949 | 45008 ft | 510 kts | 69° |
| 2026-04-21 22:38 | 32.13975 | -91.34133 | 45008 ft | 510 kts | 69° |
| 2026-04-21 22:39 | 32.16517 | -91.26319 | 45008 ft | 510 kts | 69° |
| 2026-04-21 22:39 | 32.19047 | -91.18492 | 45008 ft | 510 kts | 69° |
| 2026-04-21 22:40 | 32.21575 | -91.10668 | 45009 ft | 510 kts | 69° |
| 2026-04-21 22:40 | 32.24096 | -91.02838 | 45009 ft | 510 kts | 69° |
| 2026-04-21 22:41 | 32.26615 | -90.94999 | 45009 ft | 510 kts | 69° |
| 2026-04-21 22:41 | 32.29123 | -90.87173 | 45007 ft | 508 kts | 69° |
| 2026-04-21 22:42 | 32.31621 | -90.79362 | 45005 ft | 508 kts | 69° |
| 2026-04-21 22:42 | 32.34116 | -90.71538 | 45004 ft | 509 kts | 69° |
| 2026-04-21 22:43 | 32.36606 | -90.63713 | 45003 ft | 508 kts | 69° |
| 2026-04-21 22:43 | 32.39092 | -90.55878 | 45006 ft | 509 kts | 69° |
| 2026-04-21 22:44 | 32.41582 | -90.48010 | 45009 ft | 511 kts | 69° |
| 2026-04-21 22:44 | 32.44067 | -90.40140 | 45005 ft | 510 kts | 69° |
| 2026-04-21 22:45 | 32.46547 | -90.32266 | 45005 ft | 510 kts | 69° |
| 2026-04-21 22:45 | 32.49023 | -90.24384 | 45007 ft | 510 kts | 69° |
| 2026-04-21 22:46 | 32.51494 | -90.16499 | 45003 ft | 511 kts | 69° |
| 2026-04-21 22:46 | 32.53961 | -90.08609 | 45007 ft | 511 kts | 69° |
| 2026-04-21 22:47 | 32.56406 | -90.00765 | 45008 ft | 510 kts | 69° |
| 2026-04-21 22:47 | 32.58862 | -89.92869 | 45008 ft | 511 kts | 70° |
| 2026-04-21 22:48 | 32.61315 | -89.84960 | 45008 ft | 511 kts | 70° |
| 2026-04-21 22:48 | 32.63762 | -89.77051 | 45008 ft | 511 kts | 70° |
| 2026-04-21 22:49 | 32.66202 | -89.69141 | 45008 ft | 510 kts | 70° |
| 2026-04-21 22:49 | 32.68640 | -89.61223 | 45008 ft | 511 kts | 70° |
| 2026-04-21 22:50 | 32.71072 | -89.53302 | 45009 ft | 511 kts | 70° |
| 2026-04-21 22:50 | 32.73499 | -89.45376 | 45009 ft | 511 kts | 70° |
| 2026-04-21 22:51 | 32.75921 | -89.37445 | 45009 ft | 511 kts | 70° |
| 2026-04-21 22:51 | 32.78340 | -89.29503 | 45010 ft | 511 kts | 70° |
| 2026-04-21 22:52 | 32.80753 | -89.21561 | 45010 ft | 511 kts | 70° |
| 2026-04-21 22:52 | 32.83161 | -89.13614 | 45007 ft | 511 kts | 70° |
| 2026-04-21 22:53 | 32.85563 | -89.05667 | 45005 ft | 511 kts | 70° |
| 2026-04-21 22:53 | 32.87962 | -88.97708 | 45004 ft | 511 kts | 70° |
| 2026-04-21 22:54 | 32.90355 | -88.89748 | 45005 ft | 511 kts | 70° |
| 2026-04-21 22:54 | 32.92743 | -88.81783 | 45008 ft | 511 kts | 70° |
| 2026-04-21 22:55 | 32.95128 | -88.73809 | 45008 ft | 511 kts | 70° |
| 2026-04-21 22:55 | 32.97504 | -88.65840 | 45008 ft | 511 kts | 70° |
| 2026-04-21 22:56 | 32.99477 | -88.59210 | 45008 ft | 510 kts | 70° |
| 2026-04-21 22:56 | 33.01842 | -88.51240 | 45008 ft | 510 kts | 70° |
| 2026-04-21 22:57 | 33.04203 | -88.43265 | 45008 ft | 510 kts | 70° |
| 2026-04-21 22:57 | 33.06940 | -88.33991 | 45009 ft | 510 kts | 70° |
| 2026-04-21 22:58 | 33.08909 | -88.27299 | 45009 ft | 510 kts | 70° |
| 2026-04-21 22:58 | 33.11256 | -88.19309 | 45009 ft | 510 kts | 70° |
| 2026-04-21 22:59 | 33.13596 | -88.11317 | 45009 ft | 510 kts | 70° |
| 2026-04-21 22:59 | 33.15931 | -88.03319 | 45010 ft | 511 kts | 71° |
| 2026-04-21 23:00 | 33.18263 | -87.95313 | 45010 ft | 511 kts | 71° |
| 2026-04-21 23:00 | 33.20589 | -87.87305 | 45003 ft | 511 kts | 71° |
| 2026-04-21 23:01 | 33.22910 | -87.79288 | 45006 ft | 511 kts | 71° |
| 2026-04-21 23:01 | 33.25211 | -87.71325 | 45002 ft | 511 kts | 71° |
| 2026-04-21 23:02 | 33.27521 | -87.63304 | 45007 ft | 511 kts | 71° |
| 2026-04-21 23:02 | 33.29827 | -87.55276 | 45008 ft | 512 kts | 71° |